EDT,Max TemperatureF,Mean TemperatureF,Min TemperatureF,Max Dew PointF,MeanDew PointF,Min DewpointF,Max Humidity, Mean Humidity, Min Humidity, Max Sea Level PressureIn, Mean Sea Level PressureIn, Min Sea Level PressureIn, Max VisibilityMiles, Mean VisibilityMiles, Min VisibilityMiles, Max Wind SpeedMPH, Mean Wind SpeedMPH, Max Gust SpeedMPH,PrecipitationIn, CloudCover, Events, WindDirDegrees
2013-10-1,77,60,46,53,48,44,90,69,36,29.99,29.93,29.87,10,9,2,8,1,,0.00,0,,286
2013-10-2,81,68,55,57,54,50,87,64,42,29.96,29.89,29.84,10,10,9,15,6,20,0.00,0,,235
2013-10-3,78,66,54,54,49,40,90,60,27,30.10,30.05,29.98,10,10,10,7,4,,0.00,0,,229
2013-10-4,63,58,53,55,53,49,90,80,65,30.12,30.08,30.06,10,9,4,5,2,,0.12,5,Rain,246
2013-10-5,70,64,57,55,54,52,87,75,57,30.15,30.11,30.08,10,10,10,7,2,,0.00,7,,48
2013-10-6,60,56,53,55,52,48,94,86,77,30.27,30.21,30.15,10,7,2,14,5,,0.40,8,Rain,62
2013-10-7,79,68,57,68,61,54,94,82,56,30.15,29.98,29.82,10,6,0,21,5,39,0.11,7,Fog-Rain,153
2013-10-8,66,56,48,51,41,35,77,57,34,30.40,30.19,29.94,10,10,10,13,7,20,0.00,0,,310
2013-10-9,62,52,41,45,41,35,86,69,48,30.51,30.45,30.40,10,9,2,10,3,,0.00,0,,49
2013-10-10,62,52,42,49,43,37,89,81,58,30.39,30.32,30.21,10,7,0,7,1,,0.00,1,Fog,61
2013-10-11,72,59,46,48,43,33,93,66,25,30.20,30.17,30.13,10,9,3,9,2,,0.00,0,,46
2013-10-12,57,52,46,53,49,43,89,85,80,30.42,30.33,30.18,10,8,2,15,6,22,0.00,6,,40
2013-10-13,63,52,42,47,42,39,90,77,46,30.48,30.44,30.41,10,9,1,9,3,,0.00,2,,44
2013-10-14,66,52,37,47,38,33,93,80,34,30.43,30.38,30.27,10,4,0,8,1,,0.00,3,Fog,219
2013-10-15,63,58,53,51,49,44,89,76,65,30.28,30.25,30.20,10,9,2,7,2,,0.00,7,,47
2013-10-16,62,56,51,52,51,48,94,86,62,30.21,30.10,29.94,10,5,0,6,2,,0.00,5,Fog-Rain,42
2013-10-17,75,62,51,56,52,47,94,81,41,29.94,29.86,29.74,10,5,0,14,3,18,0.00,4,Fog-Rain,215
2013-10-18,69,62,53,59,51,36,90,69,37,29.92,29.72,29.62,10,9,4,18,7,26,0.07,5,Rain,231
2013-10-19,68,55,42,43,39,36,79,54,32,29.99,29.91,29.77,10,10,10,8,5,,0.00,2,,203
2013-10-20,62,54,44,48,37,30,86,55,31,30.04,29.85,29.71,10,10,10,16,6,25,0.00,1,Rain,255
2013-10-21,66,52,37,42,37,32,79,56,33,30.14,30.07,30.01,10,10,10,9,5,,0.00,0,,203
2013-10-22,64,54,45,48,43,34,82,64,48,30.00,29.84,29.72,10,10,10,15,5,20,0.00,3,Rain,234
2013-10-23,53,44,37,35,32,29,82,57,41,29.81,29.71,29.62,10,10,10,9,2,,0.00,4,,253
2013-10-24,54,46,39,33,27,22,73,49,31,29.89,29.78,29.66,10,10,10,17,9,26,0.00,3,,257
2013-10-25,50,42,35,32,27,22,79,55,36,30.16,30.04,29.91,10,10,10,15,7,21,0.00,1,,275
2013-10-26,55,44,32,31,26,21,79,53,27,30.16,30.04,29.89,10,10,10,17,6,26,0.00,1,,207
2013-10-27,55,48,39,37,31,23,76,53,34,30.07,29.91,29.83,10,10,10,18,9,24,0.01,4,Rain,249
2013-10-28,60,47,35,31,27,20,76,53,32,30.37,30.18,30.09,10,10,10,22,7,29,0.00,1,,252
2013-10-29,50,38,27,27,22,12,82,58,24,30.47,30.42,30.38,10,10,5,7,1,,0.00,0,,255
2013-10-30,50,41,32,35,31,26,89,74,54,30.38,30.29,30.22,10,10,8,7,1,,0.06,3,Rain,210
2013-10-31,63,47,32,56,40,28,93,84,72,30.26,30.13,29.81,10,5,0,12,1,20,0.10,6,Fog-Rain,189